createdAt,value
2022-11-14T00:01:27.050Z,30.83
2022-11-14T00:04:14.163Z,27.55
2022-11-14T00:07:01.626Z,26.63
2022-11-14T00:09:48.672Z,28.98
2022-11-14T00:12:35.819Z,26.88
2022-11-14T00:15:23.310Z,27.95
2022-11-14T00:18:10.813Z,26.17
2022-11-14T00:20:57.948Z,26.10
2022-11-14T00:23:45.171Z,27.08
2022-11-14T00:26:32.916Z,26.38
2022-11-14T00:29:20.171Z,26.85
2022-11-14T00:32:07.870Z,25.45
2022-11-14T00:34:55.056Z,25.08
2022-11-14T00:37:42.759Z,25.27
2022-11-14T00:40:29.925Z,24.15
2022-11-14T00:43:17.648Z,25.80
2022-11-14T00:46:04.859Z,27.02
2022-11-14T00:48:52.344Z,28.15
2022-11-14T00:51:39.960Z,30.80
2022-11-14T00:54:27.302Z,30.10
2022-11-14T00:57:14.755Z,29.77
2022-11-14T01:00:02.300Z,31.70
2022-11-14T01:02:49.807Z,30.88
2022-11-14T01:05:46.147Z,30.35
2022-11-14T01:08:33.378Z,31.33
2022-11-14T01:11:22.898Z,32.70
2022-11-14T01:14:10.538Z,30.55
2022-11-14T01:16:57.802Z,31.42
2022-11-14T01:19:44.944Z,32.00
2022-11-14T01:22:32.302Z,30.98
2022-11-14T01:25:19.479Z,31.90
2022-11-14T01:28:10.172Z,32.88
2022-11-14T01:30:57.866Z,32.20
2022-11-14T01:33:45.284Z,32.20
2022-11-14T01:36:32.364Z,33.20
2022-11-14T01:39:19.462Z,33.17
2022-11-14T01:42:07.173Z,34.13
2022-11-14T01:44:54.348Z,32.40
2022-11-14T01:47:42.282Z,30.85
2022-11-14T01:50:29.961Z,32.90
2022-11-14T01:53:17.235Z,31.45
2022-11-14T01:56:08.366Z,30.60
2022-11-14T01:59:02.978Z,30.95
2022-11-14T02:01:53.221Z,32.97
2022-11-14T02:04:43.941Z,32.22
2022-11-14T02:07:34.568Z,31.58
2022-11-14T02:10:22.617Z,31.95
2022-11-14T02:13:10.339Z,32.28
2022-11-14T02:15:58.062Z,32.08
2022-11-14T02:18:45.258Z,32.33
2022-11-14T02:21:32.363Z,30.42
2022-11-14T02:24:19.400Z,30.83
2022-11-14T02:27:07.389Z,30.58
2022-11-14T02:29:54.475Z,31.50
2022-11-14T02:33:12.041Z,31.42
2022-11-14T02:35:49.308Z,32.95
2022-11-14T02:38:36.449Z,29.88
2022-11-14T02:41:23.673Z,31.48
2022-11-14T02:44:11.189Z,30.27
2022-11-14T02:46:58.471Z,30.70
2022-11-14T02:49:45.641Z,29.23
2022-11-14T02:52:33.002Z,29.50
2022-11-14T02:55:21.588Z,29.02
2022-11-14T02:58:08.795Z,29.08
2022-11-14T03:01:19.233Z,29.90
2022-11-14T03:04:03.457Z,30.40
2022-11-14T03:06:50.851Z,27.65
2022-11-14T03:09:37.897Z,27.15
2022-11-14T03:12:25.308Z,27.17
2022-11-14T03:15:12.923Z,28.80
2022-11-14T03:18:00.362Z,25.45
2022-11-14T03:20:47.818Z,27.15
2022-11-14T03:23:35.006Z,28.67
2022-11-14T03:26:22.150Z,27.40
2022-11-14T03:29:09.821Z,27.70
2022-11-14T03:31:57.254Z,29.27
2022-11-14T03:34:44.791Z,28.08
2022-11-14T03:37:32.225Z,28.65
2022-11-14T03:40:19.795Z,27.23
2022-11-14T03:43:07.007Z,26.90
2022-11-14T03:45:54.419Z,28.15
2022-11-14T03:48:41.911Z,29.20
2022-11-14T03:51:29.308Z,28.65
2022-11-14T03:54:16.831Z,29.70
2022-11-14T03:57:04.067Z,28.42
2022-11-14T03:59:51.820Z,29.27
2022-11-14T04:02:39.296Z,27.88
2022-11-14T04:05:27.136Z,28.95
2022-11-14T04:08:14.409Z,28.45
2022-11-14T04:11:02.151Z,27.50
2022-11-14T04:13:49.556Z,27.60
2022-11-14T04:16:37.569Z,27.67
2022-11-14T04:19:25.178Z,28.85
2022-11-14T04:22:12.700Z,28.85
2022-11-14T04:25:00.503Z,28.05
2022-11-14T04:27:48.096Z,28.52
2022-11-14T04:30:35.614Z,29.50
2022-11-14T04:33:23.051Z,29.70
2022-11-14T04:36:10.422Z,29.75
2022-11-14T04:38:57.553Z,29.98
2022-11-14T04:41:45.984Z,31.80
2022-11-14T04:44:33.536Z,29.55
2022-11-14T04:47:20.881Z,28.55
2022-11-14T04:50:08.723Z,27.75
2022-11-14T04:52:56.983Z,28.08
2022-11-14T04:55:45.898Z,27.83
2022-11-14T04:58:33.648Z,27.45
2022-11-14T05:01:20.864Z,26.00
2022-11-14T05:04:08.397Z,27.63
2022-11-14T05:06:55.486Z,28.02
2022-11-14T05:09:42.773Z,27.70
2022-11-14T05:12:30.181Z,28.50
2022-11-14T05:15:17.261Z,28.38
2022-11-14T05:18:04.805Z,27.85
2022-11-14T05:20:52.073Z,29.40
2022-11-14T05:23:39.524Z,28.33
2022-11-14T05:26:26.682Z,29.02
2022-11-14T05:29:14.311Z,29.95
2022-11-14T05:32:01.912Z,28.77
2022-11-14T05:34:50.545Z,27.95
2022-11-14T05:37:38.028Z,29.77
2022-11-14T05:40:25.803Z,30.85
2022-11-14T05:43:13.343Z,30.30
2022-11-14T05:46:02.122Z,32.97
2022-11-14T05:48:49.281Z,31.83
2022-11-14T05:51:36.743Z,29.23
2022-11-14T05:54:24.717Z,31.55
2022-11-14T05:57:11.813Z,32.17
2022-11-14T06:00:02.699Z,31.98
2022-11-14T06:02:54.621Z,32.28
2022-11-14T06:05:42.038Z,31.08
2022-11-14T06:08:30.786Z,31.35
2022-11-14T06:11:20.428Z,30.95
2022-11-14T06:14:10.969Z,31.45
2022-11-14T06:16:58.451Z,31.25
2022-11-14T06:19:45.565Z,33.65
2022-11-14T06:22:33.526Z,35.03
2022-11-14T06:25:20.493Z,32.45
2022-11-14T06:28:07.492Z,35.25
2022-11-14T06:30:59.997Z,34.83
2022-11-14T06:33:47.407Z,34.38
2022-11-14T06:36:34.498Z,34.30
2022-11-14T06:39:21.482Z,33.95
2022-11-14T06:42:08.830Z,32.92
2022-11-14T06:44:55.749Z,33.90
2022-11-14T06:47:42.723Z,35.15
2022-11-14T06:50:29.661Z,36.60
2022-11-14T06:53:16.673Z,36.75
2022-11-14T06:56:09.106Z,36.67
2022-11-14T06:58:56.101Z,36.70
2022-11-14T07:01:43.498Z,39.67
2022-11-14T07:04:30.622Z,37.28
2022-11-14T07:07:17.779Z,39.80
2022-11-14T07:10:05.178Z,37.90
2022-11-14T07:12:52.185Z,38.42
2022-11-14T07:15:39.458Z,38.13
2022-11-14T07:18:26.894Z,35.58
2022-11-14T07:21:14.323Z,40.53
2022-11-14T07:24:01.348Z,40.38
2022-11-14T07:26:49.522Z,41.10
2022-11-14T07:29:36.643Z,40.53
2022-11-14T07:32:23.701Z,41.60
2022-11-14T07:35:10.691Z,41.92
2022-11-14T07:38:05.211Z,39.95
2022-11-14T07:40:59.251Z,29.23
2022-11-14T07:43:47.181Z,28.45
2022-11-14T07:46:34.731Z,39.88
2022-11-14T07:49:21.702Z,39.00
2022-11-14T07:52:09.054Z,40.28
2022-11-14T07:54:56.079Z,40.83
2022-11-14T07:57:47.949Z,41.92
2022-11-14T08:00:36.453Z,40.00
2022-11-14T08:03:23.729Z,39.50
2022-11-14T08:06:14.749Z,40.95
2022-11-14T08:09:01.744Z,41.70
2022-11-14T08:11:50.586Z,40.63
2022-11-14T08:14:37.721Z,39.70
2022-11-14T08:17:25.058Z,39.00
2022-11-14T08:20:12.136Z,40.83
2022-11-14T08:23:04.350Z,41.17
2022-11-14T08:25:51.669Z,41.88
2022-11-14T08:28:38.981Z,41.10
2022-11-14T08:31:25.998Z,41.35
2022-11-14T08:34:13.179Z,41.53
2022-11-14T08:37:03.672Z,42.72
2022-11-14T08:39:50.660Z,44.17
2022-11-14T08:42:37.830Z,44.53
2022-11-14T08:45:25.214Z,44.47
2022-11-14T08:48:12.262Z,43.33
2022-11-14T08:51:04.896Z,48.60
2022-11-14T08:53:52.580Z,45.97
2022-11-14T08:56:39.741Z,44.33
2022-11-14T08:59:26.836Z,46.55
2022-11-14T09:02:14.741Z,45.92
2022-11-14T09:05:01.862Z,47.45
2022-11-14T09:07:49.314Z,44.95
2022-11-14T09:10:38.567Z,44.42
2022-11-14T09:13:27.662Z,43.97
2022-11-14T09:16:14.807Z,44.63
2022-11-14T09:19:05.134Z,45.42
2022-11-14T09:21:52.353Z,46.53
2022-11-14T09:24:39.651Z,46.35
2022-11-14T09:27:27.624Z,44.53
2022-11-14T09:30:15.898Z,43.75
2022-11-14T09:33:11.175Z,43.75
2022-11-14T09:36:01.145Z,42.47
2022-11-14T09:38:48.159Z,44.10
2022-11-14T09:41:36.220Z,45.22
2022-11-14T09:44:30.285Z,44.90
2022-11-14T09:47:22.036Z,44.42
2022-11-14T09:50:25.437Z,41.50
2022-11-14T09:53:34.622Z,41.35
2022-11-14T09:56:25.914Z,43.70
2022-11-14T09:59:13.767Z,42.38
2022-11-14T10:02:14.392Z,41.95
2022-11-14T10:05:41.397Z,44.13
2022-11-14T10:08:32.138Z,41.90
2022-11-14T10:11:41.331Z,40.38
2022-11-14T10:14:31.794Z,41.05
2022-11-14T10:17:39.759Z,42.55
2022-11-14T10:20:30.303Z,39.00
2022-11-14T10:23:33.429Z,39.15
2022-11-14T10:26:30.333Z,40.95
2022-11-14T10:29:18.326Z,40.25
2022-11-14T10:32:29.078Z,40.30
2022-11-14T10:35:19.493Z,39.30
2022-11-14T10:38:07.631Z,40.13
2022-11-14T10:40:59.505Z,40.13
2022-11-14T10:43:49.971Z,38.17
2022-11-14T10:46:41.983Z,37.40
2022-11-14T10:49:33.001Z,39.45
2022-11-14T10:52:22.609Z,40.17
2022-11-14T10:55:17.007Z,38.25
2022-11-14T10:58:11.379Z,36.00
2022-11-14T11:01:37.190Z,28.88
2022-11-14T11:04:26.485Z,39.45
2022-11-14T11:07:42.235Z,39.30
2022-11-14T11:10:49.486Z,37.33
2022-11-14T11:13:43.554Z,34.60
2022-11-14T11:16:30.903Z,36.47
2022-11-14T11:19:25.348Z,38.08
2022-11-14T11:22:36.414Z,36.67
2022-11-14T11:25:26.151Z,37.22
2022-11-14T11:28:15.898Z,42.92
2022-11-14T11:31:08.703Z,43.40
2022-11-14T11:33:56.089Z,44.20
2022-11-14T11:36:51.592Z,40.63
2022-11-14T11:39:45.569Z,43.42
2022-11-14T11:43:31.820Z,41.95
2022-11-14T11:45:51.138Z,42.70
2022-11-14T11:48:39.762Z,43.60
2022-11-14T11:51:27.687Z,44.22
2022-11-14T11:54:19.856Z,45.20
2022-11-14T11:57:21.234Z,41.00
2022-11-14T12:00:21.250Z,44.53
2022-11-14T12:03:20.309Z,45.60
2022-11-14T12:06:16.691Z,43.75
2022-11-14T12:09:37.161Z,46.38
2022-11-14T12:13:01.731Z,43.45
2022-11-14T12:15:53.130Z,42.20
2022-11-14T12:19:19.949Z,44.80
2022-11-14T12:22:27.872Z,45.58
2022-11-14T12:25:50.240Z,45.17
2022-11-14T12:28:53.732Z,45.45
2022-11-14T12:31:41.632Z,44.85
2022-11-14T12:34:37.919Z,46.60
2022-11-14T12:37:51.316Z,48.50
2022-11-14T12:40:51.814Z,48.80
2022-11-14T12:43:43.154Z,47.95
2022-11-14T12:47:06.126Z,47.30
2022-11-14T12:49:53.038Z,45.65
2022-11-14T12:52:41.336Z,44.35
2022-11-14T12:55:29.318Z,43.88
2022-11-14T12:58:20.067Z,45.08
2022-11-14T13:01:14.812Z,45.70
2022-11-14T13:04:17.295Z,46.58
2022-11-14T13:07:32.961Z,46.13
2022-11-14T13:10:30.938Z,43.60
2022-11-14T13:13:38.139Z,45.78
2022-11-14T13:16:50.825Z,45.90
2022-11-14T13:20:06.365Z,46.47
2022-11-14T13:22:53.699Z,45.60
2022-11-14T13:25:40.974Z,45.60
2022-11-14T13:28:49.280Z,46.25
2022-11-14T13:31:36.765Z,46.88
2022-11-14T13:34:42.713Z,45.25
2022-11-14T13:37:31.923Z,41.63
2022-11-14T13:40:33.405Z,43.33
2022-11-14T13:43:25.229Z,45.83
2022-11-14T13:46:24.499Z,43.97
2022-11-14T13:49:14.811Z,46.63
2022-11-14T13:52:02.354Z,44.42
2022-11-14T13:54:50.917Z,45.08
2022-11-14T13:57:51.497Z,46.25
2022-11-14T14:01:06.198Z,50.20
2022-11-14T14:04:13.153Z,48.75
2022-11-14T14:07:07.733Z,46.53
2022-11-14T14:10:34.464Z,46.33
2022-11-14T14:13:43.574Z,48.22
2022-11-14T14:16:30.726Z,48.85
2022-11-14T14:19:26.464Z,49.47
2022-11-14T14:22:40.869Z,47.55
2022-11-14T14:25:33.250Z,46.47
2022-11-14T14:28:39.673Z,48.67
2022-11-14T14:31:36.620Z,48.05
2022-11-14T14:34:32.113Z,48.33
2022-11-14T14:37:22.155Z,49.70
2022-11-14T14:40:26.915Z,49.67
2022-11-14T14:43:28.578Z,50.57
2022-11-14T14:46:15.765Z,50.28
2022-11-14T14:49:05.809Z,52.35
2022-11-14T14:51:58.365Z,51.15
2022-11-14T14:54:54.708Z,52.22
2022-11-14T14:57:42.400Z,52.20
2022-11-14T15:00:29.861Z,52.72
2022-11-14T15:03:18.749Z,53.38
2022-11-14T15:06:31.204Z,50.53
2022-11-14T15:09:22.621Z,52.60
2022-11-14T15:12:10.354Z,51.67
2022-11-14T15:14:59.369Z,52.38
2022-11-14T15:17:49.160Z,54.17
2022-11-14T15:20:36.451Z,53.22
2022-11-14T15:25:13.240Z,55.38
2022-11-14T15:28:01.063Z,53.75
2022-11-14T15:31:06.745Z,51.92
2022-11-14T15:34:06.217Z,53.13
2022-11-14T15:37:14.945Z,51.50
2022-11-14T15:40:22.193Z,49.35
2022-11-14T15:43:49.758Z,50.95
2022-11-14T15:46:47.752Z,51.13
2022-11-14T15:49:36.510Z,50.53
2022-11-14T15:52:33.944Z,52.13
2022-11-14T15:55:23.218Z,50.75
2022-11-14T15:58:27.880Z,49.17
2022-11-14T16:01:23.616Z,52.30
2022-11-14T16:04:17.844Z,51.63
2022-11-14T16:07:05.732Z,52.25
2022-11-14T16:09:52.935Z,52.33
2022-11-14T16:12:40.228Z,54.03
2022-11-14T16:15:27.479Z,53.13
2022-11-14T16:18:14.545Z,52.20
2022-11-14T16:21:01.616Z,48.88
2022-11-14T16:23:50.260Z,50.80
2022-11-14T16:26:38.381Z,52.38
2022-11-14T16:29:26.247Z,51.00
2022-11-14T16:32:13.410Z,50.60
2022-11-14T16:35:00.533Z,49.63
2022-11-14T16:37:48.692Z,50.75
2022-11-14T16:40:35.830Z,51.65
2022-11-14T16:43:23.122Z,51.83
2022-11-14T16:46:11.499Z,55.78
2022-11-14T16:48:58.576Z,53.00
2022-11-14T16:51:50.541Z,50.72
2022-11-14T16:54:38.182Z,51.00
2022-11-14T16:57:25.773Z,54.08
2022-11-14T17:00:13.871Z,54.05
2022-11-14T17:03:01.031Z,55.25
2022-11-14T17:05:50.957Z,55.83
2022-11-14T17:08:39.020Z,52.65
2022-11-14T17:11:27.153Z,54.05
2022-11-14T17:14:14.918Z,56.42
2022-11-14T17:17:02.057Z,55.58
2022-11-14T17:19:49.852Z,57.92
2022-11-14T17:22:40.137Z,57.78
2022-11-14T17:25:27.677Z,58.38
2022-11-14T17:28:15.444Z,57.67
2022-11-14T17:31:10.456Z,59.72
2022-11-14T17:33:59.454Z,55.85
2022-11-14T17:36:47.826Z,57.80
2022-11-14T17:39:35.319Z,54.50
2022-11-14T17:42:22.332Z,55.10
2022-11-14T17:45:10.135Z,53.67
2022-11-14T17:47:57.167Z,48.50
2022-11-14T17:50:44.146Z,50.15
2022-11-14T17:53:33.764Z,50.00
2022-11-14T17:56:23.966Z,48.67
2022-11-14T17:59:11.111Z,51.50
2022-11-14T18:02:00.524Z,49.08
2022-11-14T18:04:48.910Z,49.03
2022-11-14T18:07:36.307Z,49.42
2022-11-14T18:10:23.720Z,52.83
2022-11-14T18:13:11.361Z,54.38
2022-11-14T18:16:03.591Z,53.30
2022-11-14T18:18:52.414Z,51.58
2022-11-14T18:21:43.319Z,54.88
2022-11-14T18:24:30.396Z,51.58
2022-11-14T18:27:17.645Z,51.00
2022-11-14T18:30:34.682Z,54.13
2022-11-14T18:33:15.556Z,51.42
2022-11-14T18:36:04.273Z,51.75
2022-11-14T18:38:51.510Z,49.47
2022-11-14T18:41:38.535Z,48.28
2022-11-14T18:44:25.659Z,49.47
2022-11-14T18:47:12.594Z,50.80
2022-11-14T18:50:01.511Z,48.83
2022-11-14T18:52:48.507Z,66.35
2022-11-14T18:55:40.648Z,50.75
2022-11-14T18:58:27.644Z,47.45
2022-11-14T19:01:18.820Z,46.78
2022-11-14T19:04:08.222Z,46.70
2022-11-14T19:06:56.700Z,45.17
2022-11-14T19:09:44.629Z,46.97
2022-11-14T19:12:31.891Z,45.10
2022-11-14T19:15:18.939Z,45.47
2022-11-14T19:18:06.105Z,46.28
2022-11-14T19:20:59.351Z,48.28
2022-11-14T19:23:46.752Z,46.95
2022-11-14T19:26:33.958Z,43.08
2022-11-14T19:29:21.095Z,45.00
2022-11-14T19:32:08.463Z,44.80
2022-11-14T19:34:55.961Z,45.97
2022-11-14T19:37:43.241Z,45.40
2022-11-14T19:40:31.320Z,44.63
2022-11-14T19:43:18.903Z,45.60
2022-11-14T19:46:07.166Z,43.15
2022-11-14T19:48:57.306Z,41.60
2022-11-14T19:51:44.659Z,44.50
2022-11-14T19:54:31.853Z,42.63
2022-11-14T19:57:18.832Z,44.00
2022-11-14T20:00:09.012Z,43.08
2022-11-14T20:02:56.569Z,41.10
2022-11-14T20:05:43.841Z,43.80
2022-11-14T20:08:31.463Z,42.72
2022-11-14T20:11:19.147Z,42.30
2022-11-14T20:14:06.988Z,43.20
2022-11-14T20:16:54.183Z,42.75
2022-11-14T20:19:42.238Z,41.08
2022-11-14T20:22:29.491Z,43.20
2022-11-14T20:25:17.211Z,42.03
2022-11-14T20:28:08.044Z,41.50
2022-11-14T20:30:55.250Z,44.58
2022-11-14T20:33:45.059Z,44.22
2022-11-14T20:36:50.297Z,44.50
2022-11-14T20:39:39.726Z,44.15
2022-11-14T20:42:26.808Z,45.67
2022-11-14T20:45:13.961Z,45.70
2022-11-14T20:48:00.976Z,46.42
2022-11-14T20:50:48.120Z,47.15
2022-11-14T20:53:35.404Z,45.05
2022-11-14T20:56:23.140Z,46.50
2022-11-14T20:59:10.180Z,45.72
2022-11-14T21:01:57.447Z,46.38
2022-11-14T21:04:44.725Z,47.05
2022-11-14T21:07:31.872Z,48.05
2022-11-14T21:10:38.974Z,48.70
2022-11-14T21:13:46.053Z,46.92
2022-11-14T21:16:35.782Z,47.90
2022-11-14T21:19:23.095Z,50.03
2022-11-14T21:22:10.540Z,48.35
2022-11-14T21:24:57.489Z,47.75
2022-11-14T21:27:44.584Z,46.42
2022-11-14T21:30:33.027Z,48.13
2022-11-14T21:33:20.635Z,50.00
2022-11-14T21:36:37.622Z,46.40
2022-11-14T21:39:17.566Z,45.00
2022-11-14T21:42:05.177Z,48.25
2022-11-14T21:44:52.161Z,47.83
2022-11-14T21:47:39.272Z,47.97
2022-11-14T21:50:26.377Z,48.08
2022-11-14T21:53:16.554Z,49.72
2022-11-14T21:56:23.109Z,47.03
2022-11-14T21:59:15.506Z,45.28
2022-11-14T22:02:23.051Z,47.38
2022-11-14T22:05:10.087Z,46.60
2022-11-14T22:07:57.061Z,47.13
2022-11-14T22:10:44.050Z,45.40
2022-11-14T22:13:31.868Z,46.42
2022-11-14T22:16:19.763Z,47.67
2022-11-14T22:19:07.214Z,46.80
2022-11-14T22:21:54.853Z,47.13
2022-11-14T22:24:42.032Z,47.28
2022-11-14T22:27:28.994Z,45.47
2022-11-14T22:30:16.381Z,45.00
2022-11-14T22:33:03.369Z,44.95
2022-11-14T22:35:50.462Z,45.38
2022-11-14T22:38:38.393Z,45.30
2022-11-14T22:41:32.397Z,46.47
2022-11-14T22:44:20.174Z,45.22
2022-11-14T22:47:07.176Z,44.92
2022-11-14T22:49:54.152Z,42.13
2022-11-14T22:52:41.186Z,41.50
2022-11-14T22:55:28.162Z,42.97
2022-11-14T22:58:15.320Z,45.38
2022-11-14T23:01:09.890Z,43.40
2022-11-14T23:04:01.703Z,41.92
2022-11-14T23:06:48.941Z,44.35
2022-11-14T23:09:35.981Z,46.83
2022-11-14T23:12:23.026Z,44.25
2022-11-14T23:15:10.412Z,46.20
2022-11-14T23:17:59.547Z,45.60
2022-11-14T23:20:47.280Z,45.90
2022-11-14T23:23:34.651Z,46.25
2022-11-14T23:26:22.917Z,45.15
2022-11-14T23:29:14.099Z,46.20
2022-11-14T23:32:01.666Z,46.75
2022-11-14T23:34:48.670Z,48.15
2022-11-14T23:37:35.683Z,47.63
2022-11-14T23:40:22.632Z,47.17
2022-11-14T23:43:10.297Z,47.88
2022-11-14T23:45:57.873Z,48.20
2022-11-14T23:48:45.099Z,48.63
2022-11-14T23:51:32.993Z,49.65
2022-11-14T23:54:19.997Z,50.05
2022-11-14T23:57:07.021Z,47.25
2022-11-14T23:59:54.023Z,51.88
